Weather Center

VHHH METAR :
VHHH 170730Z 28006KT 230V320 9999 FEW035 26/16 Q1012 NOSIG

VHHH TAF :
VHHH 170500Z 1706/1812 27010KT 9999 FEW035 TX26/1706Z TX27/1806Z TN22/1722Z
BECMG 1707/1709 10010KT

VMMC METAR :
VMMCH

VMMC TAF :
VMMC 170500Z 1706/1812 09010KT 9999 FEW025
TEMPO 1706/1709 03008KT

Comments are closed